Time;durP1;ratioP1;P1;durP2;ratioP2;P2;SDS_P1;SDS_P2;PMS_P1;PMS_P2;Temp;Humidity;BMP_temperature;BMP_pressure;BME280_temperature;BME280_humidity;BME280_pressure;Samples;Min_cycle;Max_cycle;Signal;HPM_P1;HPM_P2
2022/07/03 00:00:00;;;;;;;6.50;2.05;;;;;;;;;;5010533;28;20385;-78
2022/07/03 00:02:26;;;;;;;6.05;2.00;;;;;;;;;;5010693;28;20030;-77
2022/07/03 00:04:51;;;;;;;4.35;2.20;;;;;;;;;;5010935;28;20109;-79
2022/07/03 00:07:17;;;;;;;6.35;2.22;;;;;;;;;;4992896;28;20516;-78
2022/07/03 00:09:42;;;;;;;6.25;2.15;;;;;;;;;;5010701;28;20030;-79
2022/07/03 00:12:09;;;;;;;7.63;2.50;;;;;;;;;;5010356;28;20041;-81
2022/07/03 00:14:34;;;;;;;4.53;2.22;;;;;;;;;;5010416;28;20030;-81
2022/07/03 00:17:00;;;;;;;5.03;2.17;;;;;;;;;;5010449;28;20040;-79
2022/07/03 00:19:25;;;;;;;4.78;2.35;;;;;;;;;;5010356;28;20556;-78
2022/07/03 00:21:57;;;;;;;5.72;2.38;;;;;;;;;;5010364;28;20065;-80
2022/07/03 00:25:00;;;;;;;4.97;2.15;;;;;;;;;;5010521;28;20038;-80
2022/07/03 00:27:26;;;;;;;3.95;2.30;;;;;;;;;;4985992;28;20053;-79
2022/07/03 00:29:55;;;;;;;4.60;2.30;;;;;;;;;;5009972;28;20026;-79
2022/07/03 00:32:25;;;;;;;7.03;2.20;;;;;;;;;;5010367;28;20029;-81
2022/07/03 00:34:52;;;;;;;7.05;2.67;;;;;;;;;;5010347;28;20037;-78
2022/07/03 00:37:18;;;;;;;6.07;2.33;;;;;;;;;;5010210;28;20048;-81
2022/07/03 00:39:44;;;;;;;6.32;2.25;;;;;;;;;;5010427;28;20486;-82
2022/07/03 00:42:11;;;;;;;5.38;2.33;;;;;;;;;;5010279;28;20493;-81
2022/07/03 00:44:48;;;;;;;5.10;2.10;;;;;;;;;;5014063;28;20026;-78
2022/07/03 00:47:14;;;;;;;6.13;2.30;;;;;;;;;;5014259;28;20093;-79
2022/07/03 00:49:43;;;;;;;5.70;2.30;;;;;;;;;;5013937;28;20049;-83
2022/07/03 00:52:11;;;;;;;5.80;2.30;;;;;;;;;;5013975;28;20022;-78
2022/07/03 00:54:41;;;;;;;4.38;2.50;;;;;;;;;;5014014;28;20053;-78
2022/07/03 00:57:13;;;;;;;5.70;2.45;;;;;;;;;;5013917;28;20033;-80
2022/07/03 00:59:38;;;;;;;4.72;2.17;;;;;;;;;;5013914;28;20717;-80
2022/07/03 01:02:05;;;;;;;5.80;2.85;;;;;;;;;;4996299;28;20121;-78
2022/07/03 01:04:43;;;;;;;5.15;2.40;;;;;;;;;;5013738;28;20087;-78
2022/07/03 01:07:35;;;;;;;7.88;2.45;;;;;;;;;;5013623;28;20386;-82
2022/07/03 01:10:22;;;;;;;6.00;2.40;;;;;;;;;;5013789;28;20030;-83
2022/07/03 01:12:59;;;;;;;7.68;2.60;;;;;;;;;;5013630;28;20026;-82
2022/07/03 01:15:48;;;;;;;5.70;2.28;;;;;;;;;;5013688;28;20057;-80
2022/07/03 01:18:34;;;;;;;5.88;2.22;;;;;;;;;;5013577;28;20443;-75
2022/07/03 01:21:33;;;;;;;5.55;2.13;;;;;;;;;;5013412;28;20030;-78
2022/07/03 01:24:18;;;;;;;4.60;2.38;;;;;;;;;;5013188;28;20437;-75
2022/07/03 01:26:46;;;;;;;4.35;2.15;;;;;;;;;;5013431;28;20030;-74
2022/07/03 01:29:22;;;;;;;3.65;2.00;;;;;;;;;;5013034;28;20449;-74
2022/07/03 01:31:51;;;;;;;5.03;1.80;;;;;;;;;;5013373;28;20026;-76
2022/07/03 01:34:19;;;;;;;6.10;2.00;;;;;;;;;;5013495;28;20022;-79
2022/07/03 01:36:47;;;;;;;5.63;1.88;;;;;;;;;;5013313;28;20588;-82
2022/07/03 01:39:16;;;;;;;4.95;1.95;;;;;;;;;;5013032;28;20478;-82
2022/07/03 01:41:45;;;;;;;3.63;1.90;;;;;;;;;;5013136;28;20033;-82
2022/07/03 01:44:13;;;;;;;7.32;1.95;;;;;;;;;;5013140;28;20034;-82
2022/07/03 01:46:42;;;;;;;4.93;1.98;;;;;;;;;;5013143;28;20029;-82
2022/07/03 01:49:10;;;;;;;4.05;2.00;;;;;;;;;;5013148;28;20044;-81
2022/07/03 01:51:38;;;;;;;5.43;2.30;;;;;;;;;;5013107;28;20030;-82
2022/07/03 01:54:05;;;;;;;6.65;2.13;;;;;;;;;;5012479;28;20034;-81
2022/07/03 01:56:32;;;;;;;4.32;2.00;;;;;;;;;;5012884;28;20144;-83
2022/07/03 01:58:59;;;;;;;9.30;1.83;;;;;;;;;;5012621;28;20030;-82
2022/07/03 02:01:43;;;;;;;4.70;2.08;;;;;;;;;;5012652;28;20033;-82
2022/07/03 02:04:23;;;;;;;4.43;1.92;;;;;;;;;;5013045;28;20045;-82
2022/07/03 02:07:02;;;;;;;4.83;1.90;;;;;;;;;;5012856;28;20517;-81
2022/07/03 02:09:54;;;;;;;5.70;1.85;;;;;;;;;;5012777;28;20030;-82
2022/07/03 02:12:25;;;;;;;4.80;1.80;;;;;;;;;;4998640;28;20125;-78
2022/07/03 02:15:03;;;;;;;5.80;1.73;;;;;;;;;;4994844;28;20036;-74
2022/07/03 02:17:35;;;;;;;4.38;1.90;;;;;;;;;;5012393;28;20552;-75
2022/07/03 02:20:04;;;;;;;4.15;1.60;;;;;;;;;;5012244;28;20076;-73
2022/07/03 02:22:42;;;;;;;6.45;1.80;;;;;;;;;;5022265;28;20037;-72
2022/07/03 02:25:18;;;;;;;5.53;1.70;;;;;;;;;;5022651;28;20022;-73
2022/07/03 02:28:06;;;;;;;4.90;1.67;;;;;;;;;;5022856;28;20021;-72
2022/07/03 02:30:35;;;;;;;4.35;1.73;;;;;;;;;;5023335;28;20030;-72
2022/07/03 02:33:02;;;;;;;5.72;1.60;;;;;;;;;;5023537;28;20316;-73
2022/07/03 02:35:29;;;;;;;5.85;1.70;;;;;;;;;;5023479;28;20033;-73
2022/07/03 02:38:24;;;;;;;5.07;1.50;;;;;;;;;;5023033;28;20093;-72
2022/07/03 02:40:52;;;;;;;3.97;1.63;;;;;;;;;;5021362;28;20050;-73
2022/07/03 02:43:36;;;;;;;4.40;1.52;;;;;;;;;;5021539;28;20038;-72
2022/07/03 02:48:54;;;;;;;2.70;1.40;;;;;;;;;;5021350;28;20078;-79
2022/07/03 02:51:22;;;;;;;4.45;1.52;;;;;;;;;;5022445;28;20030;-79
2022/07/03 02:53:59;;;;;;;3.05;1.27;;;;;;;;;;5022515;28;20037;-75
2022/07/03 02:56:51;;;;;;;2.80;1.30;;;;;;;;;;5021826;28;20115;-78
2022/07/03 02:59:40;;;;;;;3.08;1.20;;;;;;;;;;5021449;28;20037;-76
2022/07/03 03:02:12;;;;;;;2.85;1.10;;;;;;;;;;5008195;28;20116;-76
2022/07/03 03:04:43;;;;;;;3.88;1.30;;;;;;;;;;5003439;28;20105;-77
2022/07/03 03:07:15;;;;;;;2.17;1.20;;;;;;;;;;5003747;28;20263;-78
2022/07/03 03:09:47;;;;;;;7.60;1.40;;;;;;;;;;5020929;28;20022;-78
2022/07/03 03:12:13;;;;;;;4.85;1.30;;;;;;;;;;5022574;28;20036;-77
2022/07/03 03:14:45;;;;;;;3.95;1.20;;;;;;;;;;5022472;28;20061;-77
2022/07/03 03:17:17;;;;;;;5.40;1.20;;;;;;;;;;5022829;28;20032;-77
2022/07/03 03:19:46;;;;;;;3.42;1.50;;;;;;;;;;5022996;28;20133;-82
2022/07/03 03:22:33;;;;;;;6.88;1.20;;;;;;;;;;5021604;28;20036;-82
2022/07/03 03:25:01;;;;;;;5.68;1.50;;;;;;;;;;5022704;28;20030;-84
2022/07/03 03:27:27;;;;;;;5.07;1.30;;;;;;;;;;5022479;28;20068;-84
2022/07/03 03:29:53;;;;;;;5.57;1.40;;;;;;;;;;5022437;28;20037;-83
2022/07/03 03:32:19;;;;;;;4.13;1.30;;;;;;;;;;5022573;28;20033;-84
2022/07/03 03:34:46;;;;;;;6.38;1.40;;;;;;;;;;5022595;28;20104;-83
2022/07/03 03:37:11;;;;;;;4.65;1.20;;;;;;;;;;5022343;28;20301;-83
2022/07/03 03:39:37;;;;;;;4.97;1.27;;;;;;;;;;5022398;28;20036;-83
2022/07/03 03:42:03;;;;;;;5.13;1.20;;;;;;;;;;5022344;28;20041;-83
2022/07/03 03:44:29;;;;;;;6.95;1.60;;;;;;;;;;5022322;28;20038;-82
2022/07/03 03:46:55;;;;;;;3.10;1.30;;;;;;;;;;5022443;28;20052;-82
2022/07/03 03:49:21;;;;;;;5.35;1.75;;;;;;;;;;5022227;28;20038;-83
2022/07/03 03:51:46;;;;;;;3.92;1.40;;;;;;;;;;5022351;28;20099;-83
2022/07/03 03:54:11;;;;;;;3.03;1.30;;;;;;;;;;5022093;28;20101;-79
2022/07/03 03:56:37;;;;;;;4.47;1.30;;;;;;;;;;5004365;28;20297;-83
2022/07/03 03:59:02;;;;;;;4.38;1.40;;;;;;;;;;5020955;28;20033;-83
2022/07/03 04:01:28;;;;;;;4.85;1.20;;;;;;;;;;5020639;28;20424;-82
2022/07/03 04:03:53;;;;;;;4.00;1.30;;;;;;;;;;5020664;28;20041;-84
2022/07/03 04:06:20;;;;;;;6.07;1.60;;;;;;;;;;5003254;28;20093;-84
2022/07/03 04:08:45;;;;;;;5.28;1.40;;;;;;;;;;5020253;28;20360;-83
2022/07/03 04:11:11;;;;;;;3.88;1.20;;;;;;;;;;5020549;28;20042;-83
2022/07/03 04:13:36;;;;;;;5.18;1.50;;;;;;;;;;5020453;28;20035;-84
2022/07/03 04:16:02;;;;;;;6.35;1.50;;;;;;;;;;5020270;28;20249;-84
2022/07/03 04:18:27;;;;;;;5.80;1.40;;;;;;;;;;5021296;28;20041;-84
2022/07/03 04:20:53;;;;;;;7.20;1.40;;;;;;;;;;5021049;28;20097;-83
2022/07/03 04:23:18;;;;;;;3.40;1.35;;;;;;;;;;5020481;28;20029;-82
2022/07/03 04:25:44;;;;;;;3.63;1.48;;;;;;;;;;5020769;28;20030;-84
2022/07/03 04:28:09;;;;;;;7.90;1.58;;;;;;;;;;5020791;28;20353;-83
2022/07/03 04:30:35;;;;;;;5.63;1.40;;;;;;;;;;5020156;28;20040;-84
2022/07/03 04:33:00;;;;;;;5.13;1.52;;;;;;;;;;5020952;28;20105;-84
2022/07/03 04:35:26;;;;;;;5.75;1.48;;;;;;;;;;5021425;28;20021;-82
2022/07/03 04:37:51;;;;;;;6.35;1.48;;;;;;;;;;5021102;28;20030;-84
2022/07/03 04:40:17;;;;;;;5.55;1.30;;;;;;;;;;5021275;28;20037;-83
2022/07/03 04:42:42;;;;;;;4.97;1.30;;;;;;;;;;5020831;28;20037;-83
2022/07/03 04:45:08;;;;;;;5.43;1.40;;;;;;;;;;5019218;28;20048;-83
2022/07/03 04:47:33;;;;;;;4.68;1.50;;;;;;;;;;5020329;28;20053;-83
2022/07/03 04:49:59;;;;;;;3.85;1.40;;;;;;;;;;5021145;28;20041;-82
2022/07/03 04:52:24;;;;;;;4.85;1.50;;;;;;;;;;5021315;28;20045;-83
2022/07/03 04:54:50;;;;;;;5.90;1.75;;;;;;;;;;5021354;28;20224;-84
2022/07/03 04:57:15;;;;;;;6.00;1.42;;;;;;;;;;5021476;28;20502;-83
2022/07/03 04:59:41;;;;;;;7.22;1.50;;;;;;;;;;5021575;28;20033;-82
2022/07/03 05:02:07;;;;;;;8.02;1.50;;;;;;;;;;5021433;28;20344;-83
2022/07/03 05:04:32;;;;;;;6.53;1.50;;;;;;;;;;5004047;28;20026;-85
2022/07/03 05:06:59;;;;;;;5.53;1.45;;;;;;;;;;5020793;28;20321;-84
2022/07/03 05:09:24;;;;;;;5.00;1.50;;;;;;;;;;5020271;28;20034;-83
2022/07/03 05:11:50;;;;;;;6.20;1.30;;;;;;;;;;5019820;28;20032;-83
2022/07/03 05:14:15;;;;;;;6.47;1.48;;;;;;;;;;5019894;28;20045;-83
2022/07/03 05:16:41;;;;;;;4.25;1.38;;;;;;;;;;5019831;28;20256;-83
2022/07/03 05:19:09;;;;;;;6.95;1.60;;;;;;;;;;5020111;28;20201;-82
2022/07/03 05:21:35;;;;;;;8.10;1.38;;;;;;;;;;5019467;28;20029;-81
2022/07/03 05:24:00;;;;;;;7.18;1.60;;;;;;;;;;5002958;28;20034;-83
2022/07/03 05:26:25;;;;;;;5.95;1.55;;;;;;;;;;5021186;28;20030;-83
2022/07/03 05:28:51;;;;;;;4.88;1.50;;;;;;;;;;5022133;28;20025;-82
2022/07/03 05:31:16;;;;;;;10.52;1.60;;;;;;;;;;5024657;28;20049;-83
2022/07/03 05:33:42;;;;;;;6.43;1.50;;;;;;;;;;5024697;28;20299;-83
2022/07/03 05:36:08;;;;;;;5.57;1.40;;;;;;;;;;5024437;28;20034;-84
2022/07/03 05:41:17;;;;;;;4.97;1.50;;;;;;;;;;5023291;28;20343;-81
2022/07/03 05:43:43;;;;;;;4.72;1.13;;;;;;;;;;5024141;28;20034;-83
2022/07/03 05:46:08;;;;;;;7.72;1.60;;;;;;;;;;5024358;28;20072;-83
2022/07/03 05:48:34;;;;;;;6.38;1.50;;;;;;;;;;5024429;28;20186;-84
2022/07/03 05:51:00;;;;;;;7.35;1.73;;;;;;;;;;5024446;28;20055;-84
2022/07/03 05:53:25;;;;;;;10.02;1.48;;;;;;;;;;5023880;28;20076;-84
2022/07/03 05:55:51;;;;;;;5.35;1.40;;;;;;;;;;5024231;28;20041;-84
2022/07/03 05:58:16;;;;;;;5.53;1.48;;;;;;;;;;5024342;28;20034;-84
2022/07/03 06:00:42;;;;;;;6.05;1.40;;;;;;;;;;5024092;28;20029;-79
2022/07/03 06:03:08;;;;;;;6.70;1.40;;;;;;;;;;5024104;28;20036;-84
2022/07/03 06:05:34;;;;;;;3.53;1.27;;;;;;;;;;5024232;28;20038;-84
2022/07/03 06:07:59;;;;;;;5.43;1.20;;;;;;;;;;5023900;28;20026;-83
2022/07/03 06:10:26;;;;;;;6.15;1.35;;;;;;;;;;5022926;28;20105;-83
2022/07/03 06:12:52;;;;;;;6.78;1.50;;;;;;;;;;5023049;28;20022;-80
2022/07/03 06:15:17;;;;;;;7.43;1.40;;;;;;;;;;5023178;28;20072;-82
2022/07/03 06:17:46;;;;;;;6.80;1.48;;;;;;;;;;5023155;28;20030;-84
2022/07/03 06:20:12;;;;;;;4.90;1.27;;;;;;;;;;5023077;28;20109;-75
2022/07/03 06:22:38;;;;;;;6.40;1.50;;;;;;;;;;5023067;28;20032;-76
2022/07/03 06:25:04;;;;;;;5.57;1.33;;;;;;;;;;5021966;28;20018;-83
2022/07/03 06:27:30;;;;;;;5.28;1.38;;;;;;;;;;5022251;28;20040;-80
2022/07/03 06:29:55;;;;;;;4.72;1.20;;;;;;;;;;5005834;28;20036;-84
2022/07/03 06:32:20;;;;;;;4.70;1.40;;;;;;;;;;5005505;28;20029;-83
2022/07/03 06:34:46;;;;;;;6.65;1.30;;;;;;;;;;5022260;28;20345;-81
2022/07/03 06:37:12;;;;;;;4.85;1.40;;;;;;;;;;5022077;28;20029;-84
2022/07/03 06:39:38;;;;;;;5.50;1.55;;;;;;;;;;5021711;28;20030;-79
2022/07/03 06:42:04;;;;;;;6.57;1.40;;;;;;;;;;5021869;28;20065;-80
2022/07/03 06:44:29;;;;;;;6.72;1.50;;;;;;;;;;5022216;28;20101;-78
2022/07/03 06:46:55;;;;;;;7.60;1.70;;;;;;;;;;5023308;28;20029;-80
2022/07/03 06:49:20;;;;;;;6.13;1.30;;;;;;;;;;5023238;28;20022;-82
2022/07/03 06:51:49;;;;;;;4.32;1.25;;;;;;;;;;5023216;28;20056;-76
2022/07/03 06:54:15;;;;;;;6.10;1.52;;;;;;;;;;5023228;28;20041;-78
2022/07/03 06:56:42;;;;;;;5.93;1.60;;;;;;;;;;5022589;28;20037;-79
2022/07/03 06:59:07;;;;;;;5.32;1.50;;;;;;;;;;5022259;28;20264;-76
2022/07/03 07:01:33;;;;;;;7.03;1.30;;;;;;;;;;5022158;28;20030;-81
2022/07/03 07:03:58;;;;;;;7.22;1.40;;;;;;;;;;5023125;28;20064;-83
2022/07/03 07:06:23;;;;;;;3.88;1.50;;;;;;;;;;5023282;28;20034;-83
2022/07/03 07:08:49;;;;;;;7.85;1.45;;;;;;;;;;5022982;28;20026;-83
2022/07/03 07:11:14;;;;;;;6.93;1.48;;;;;;;;;;5022809;28;20384;-85
2022/07/03 07:13:40;;;;;;;5.78;1.40;;;;;;;;;;5022930;28;20034;-82
2022/07/03 07:16:06;;;;;;;4.75;1.52;;;;;;;;;;5022871;28;20325;-83
2022/07/03 07:18:31;;;;;;;5.15;1.52;;;;;;;;;;5023161;28;20033;-72
2022/07/03 07:20:57;;;;;;;6.25;1.75;;;;;;;;;;5022748;28;20030;-84
2022/07/03 07:23:22;;;;;;;4.97;1.40;;;;;;;;;;5005108;28;20413;-82
2022/07/03 07:25:48;;;;;;;7.10;1.67;;;;;;;;;;5022786;28;20281;-82
2022/07/03 07:28:13;;;;;;;5.97;1.40;;;;;;;;;;5022157;28;20217;-85
2022/07/03 07:30:39;;;;;;;5.53;1.45;;;;;;;;;;5004376;28;20107;-74
2022/07/03 07:33:06;;;;;;;6.32;1.40;;;;;;;;;;5021411;28;20029;-77
2022/07/03 07:35:31;;;;;;;4.55;1.42;;;;;;;;;;5020825;28;20060;-83
2022/07/03 07:37:56;;;;;;;4.82;1.60;;;;;;;;;;5003853;28;20236;-79
2022/07/03 07:40:22;;;;;;;9.25;1.67;;;;;;;;;;5021129;28;20033;-77
2022/07/03 07:42:47;;;;;;;6.35;1.42;;;;;;;;;;5020636;28;20026;-79
2022/07/03 07:45:13;;;;;;;5.35;1.50;;;;;;;;;;5018718;28;20056;-80
2022/07/03 07:47:38;;;;;;;5.38;1.50;;;;;;;;;;5020328;28;20026;-83
2022/07/03 07:50:04;;;;;;;6.85;1.60;;;;;;;;;;5021468;28;20025;-81
2022/07/03 07:52:30;;;;;;;4.47;1.50;;;;;;;;;;5021524;28;20026;-77
2022/07/03 07:54:55;;;;;;;5.47;1.40;;;;;;;;;;5019582;28;20022;-85
2022/07/03 07:57:21;;;;;;;9.43;1.67;;;;;;;;;;5022589;28;20044;-83
2022/07/03 07:59:46;;;;;;;7.07;1.30;;;;;;;;;;5022085;28;20051;-81
2022/07/03 08:07:39;;;;;;;5.55;1.40;;;;;;;;;;5019716;28;20036;-74
2022/07/03 08:10:05;;;;;;;6.05;1.55;;;;;;;;;;5021904;28;20225;-74
2022/07/03 08:12:30;;;;;;;5.38;1.65;;;;;;;;;;5021776;28;20314;-77
2022/07/03 08:14:56;;;;;;;8.60;1.63;;;;;;;;;;5004433;28;20068;-75
2022/07/03 08:17:21;;;;;;;5.18;1.60;;;;;;;;;;5021610;28;20209;-72
2022/07/03 08:19:47;;;;;;;4.53;1.30;;;;;;;;;;4994890;28;20026;-73
2022/07/03 08:22:12;;;;;;;5.93;1.60;;;;;;;;;;4983971;28;20050;-75
2022/07/03 08:24:37;;;;;;;5.78;1.60;;;;;;;;;;4988737;28;20027;-73
2022/07/03 08:27:05;;;;;;;5.07;1.70;;;;;;;;;;5000937;28;20045;-74
2022/07/03 08:29:30;;;;;;;5.75;1.65;;;;;;;;;;5000848;28;20064;-75
2022/07/03 08:31:56;;;;;;;5.20;1.52;;;;;;;;;;4996310;28;20273;-75
2022/07/03 08:34:22;;;;;;;3.30;1.40;;;;;;;;;;5001801;28;20063;-74
2022/07/03 08:36:47;;;;;;;4.90;1.50;;;;;;;;;;5001660;28;20033;-72
2022/07/03 08:39:13;;;;;;;4.57;1.48;;;;;;;;;;4997818;28;20035;-73
2022/07/03 08:41:40;;;;;;;4.03;1.20;;;;;;;;;;5001502;28;20038;-75
2022/07/03 08:44:07;;;;;;;5.30;1.70;;;;;;;;;;5001579;28;20073;-73
2022/07/03 08:46:33;;;;;;;4.53;1.45;;;;;;;;;;5001781;28;20097;-72
2022/07/03 08:49:01;;;;;;;6.43;1.60;;;;;;;;;;5001771;28;20417;-74
2022/07/03 08:51:27;;;;;;;5.55;1.50;;;;;;;;;;5001327;28;20049;-72
2022/07/03 08:53:56;;;;;;;6.00;1.52;;;;;;;;;;5001119;28;20031;-73
2022/07/03 08:56:23;;;;;;;3.97;1.38;;;;;;;;;;4999281;28;20105;-79
2022/07/03 08:58:49;;;;;;;7.40;1.50;;;;;;;;;;4983373;28;20320;-80
2022/07/03 09:01:17;;;;;;;4.40;1.20;;;;;;;;;;4999650;28;20421;-80
2022/07/03 09:03:43;;;;;;;5.57;1.45;;;;;;;;;;5000423;28;20057;-79
2022/07/03 09:06:09;;;;;;;4.10;1.35;;;;;;;;;;4984811;28;20113;-79
2022/07/03 09:08:36;;;;;;;4.45;1.50;;;;;;;;;;5003513;28;20034;-79
2022/07/03 09:11:02;;;;;;;5.35;1.65;;;;;;;;;;5004307;28;20094;-78
2022/07/03 09:13:28;;;;;;;6.85;1.60;;;;;;;;;;5004796;28;20046;-80
2022/07/03 09:15:54;;;;;;;5.47;1.65;;;;;;;;;;5003498;28;20042;-78
2022/07/03 09:18:39;;;;;;;4.18;1.40;;;;;;;;;;5005104;28;20026;-76
2022/07/03 09:21:05;;;;;;;5.63;1.52;;;;;;;;;;5005207;28;20054;-77
2022/07/03 09:23:39;;;;;;;6.55;1.50;;;;;;;;;;5004722;28;20053;-78
2022/07/03 09:26:05;;;;;;;6.15;1.75;;;;;;;;;;5004928;28;20030;-79
2022/07/03 09:28:51;;;;;;;5.97;1.60;;;;;;;;;;5004249;28;20022;-77
2022/07/03 09:31:29;;;;;;;7.65;1.98;;;;;;;;;;4999600;28;20060;-74
2022/07/03 09:33:57;;;;;;;8.40;1.70;;;;;;;;;;5003908;28;20034;-77
2022/07/03 09:36:47;;;;;;;4.03;1.70;;;;;;;;;;4999791;28;20274;-76
2022/07/03 09:39:19;;;;;;;7.53;1.50;;;;;;;;;;4995927;28;20224;-76
2022/07/03 09:42:11;;;;;;;4.80;1.77;;;;;;;;;;5004369;28;20034;-76
2022/07/03 09:44:46;;;;;;;5.18;1.60;;;;;;;;;;4991403;28;20049;-77
2022/07/03 09:47:11;;;;;;;5.40;1.67;;;;;;;;;;5004745;28;20026;-76
2022/07/03 09:49:54;;;;;;;4.85;1.70;;;;;;;;;;5004665;28;20225;-76
2022/07/03 09:52:26;;;;;;;5.60;1.80;;;;;;;;;;5004065;28;20190;-76
2022/07/03 09:54:52;;;;;;;4.82;1.60;;;;;;;;;;5004572;28;20341;-77
2022/07/03 09:57:18;;;;;;;4.05;1.70;;;;;;;;;;4987045;28;20034;-77
2022/07/03 09:59:43;;;;;;;6.80;1.63;;;;;;;;;;5004541;28;20056;-75
2022/07/03 10:02:09;;;;;;;4.28;1.60;;;;;;;;;;5004163;28;20038;-76
2022/07/03 10:04:34;;;;;;;6.32;1.90;;;;;;;;;;4999299;28;20083;-78
2022/07/03 10:07:00;;;;;;;3.30;1.45;;;;;;;;;;5002349;28;20274;-76
2022/07/03 10:09:34;;;;;;;4.28;1.60;;;;;;;;;;5002354;28;20045;-75
2022/07/03 10:12:02;;;;;;;3.78;1.73;;;;;;;;;;5002279;28;20038;-75
2022/07/03 10:14:31;;;;;;;4.25;1.50;;;;;;;;;;5001457;28;20035;-76
2022/07/03 10:17:01;;;;;;;5.03;1.30;;;;;;;;;;5002541;28;20045;-77
2022/07/03 10:19:32;;;;;;;3.95;1.55;;;;;;;;;;5002805;28;20023;-77
2022/07/03 10:22:03;;;;;;;4.47;1.45;;;;;;;;;;4984806;28;20069;-78
2022/07/03 10:24:30;;;;;;;6.57;1.67;;;;;;;;;;5003011;28;20026;-78
2022/07/03 10:26:58;;;;;;;6.45;1.50;;;;;;;;;;5001512;28;20104;-80
2022/07/03 10:29:25;;;;;;;6.43;1.80;;;;;;;;;;5001586;28;20086;-74
2022/07/03 10:31:51;;;;;;;6.47;1.50;;;;;;;;;;5001182;28;20030;-74
2022/07/03 10:34:25;;;;;;;5.57;1.63;;;;;;;;;;5002584;28;20199;-83
2022/07/03 10:36:57;;;;;;;5.40;1.50;;;;;;;;;;5002306;28;20089;-82
2022/07/03 10:39:43;;;;;;;4.70;2.25;;;;;;;;;;5002580;28;20099;-84
2022/07/03 10:45:09;;;;;;;6.32;1.50;;;;;;;;;;5002319;28;20053;-82
2022/07/03 10:47:40;;;;;;;6.28;1.50;;;;;;;;;;5001180;28;20061;-83
2022/07/03 10:50:18;;;;;;;3.30;1.58;;;;;;;;;;5002713;28;20026;-78
2022/07/03 10:52:44;;;;;;;4.93;1.55;;;;;;;;;;5002209;28;20142;-79
2022/07/03 10:55:11;;;;;;;5.00;1.50;;;;;;;;;;4985303;28;20038;-76
2022/07/03 10:57:38;;;;;;;4.93;1.60;;;;;;;;;;5002306;28;20030;-80
2022/07/03 11:00:07;;;;;;;4.43;1.67;;;;;;;;;;5002432;28;20302;-88
2022/07/03 11:02:40;;;;;;;4.60;1.75;;;;;;;;;;5002449;28;20316;-81
2022/07/03 11:05:06;;;;;;;5.43;1.63;;;;;;;;;;5002414;28;20061;-79
2022/07/03 11:07:33;;;;;;;3.90;1.60;;;;;;;;;;5001903;28;20042;-83
2022/07/03 11:10:14;;;;;;;2.88;1.40;;;;;;;;;;5002226;28;20352;-76
2022/07/03 11:13:01;;;;;;;4.95;1.63;;;;;;;;;;5001921;28;20061;-79
2022/07/03 11:15:33;;;;;;;4.60;1.70;;;;;;;;;;5001843;28;20034;-77
2022/07/03 11:18:04;;;;;;;3.50;1.50;;;;;;;;;;5001867;28;20044;-79
2022/07/03 11:20:30;;;;;;;4.30;1.60;;;;;;;;;;5002104;28;20341;-76
2022/07/03 11:23:27;;;;;;;4.75;1.60;;;;;;;;;;5001036;28;20034;-75
2022/07/03 11:26:12;;;;;;;5.40;1.50;;;;;;;;;;4999800;28;20026;-79
2022/07/03 11:28:38;;;;;;;3.90;1.42;;;;;;;;;;4991120;28;20057;-84
2022/07/03 11:31:18;;;;;;;3.95;1.30;;;;;;;;;;4998677;28;20026;-82
2022/07/03 11:33:43;;;;;;;;;;;;;;;;;;4998689;28;20030;-84
2022/07/03 11:36:11;;;;;;;4.35;1.50;;;;;;;;;;4996597;28;19964;-83
2022/07/03 11:38:37;;;;;;;4.38;1.60;;;;;;;;;;4997122;28;20038;-82
2022/07/03 11:41:07;;;;;;;3.72;1.52;;;;;;;;;;5000337;28;20026;-83
2022/07/03 11:43:34;;;;;;;3.47;1.52;;;;;;;;;;4993115;28;20044;-84
2022/07/03 11:46:01;;;;;;;6.38;1.70;;;;;;;;;;4982167;28;20062;-84
2022/07/03 11:48:27;;;;;;;4.80;1.60;;;;;;;;;;4995697;28;20084;-83
2022/07/03 11:51:00;;;;;;;3.47;1.30;;;;;;;;;;4994471;28;20037;-83
2022/07/03 11:53:27;;;;;;;2.85;1.40;;;;;;;;;;4997525;28;20060;-84
2022/07/03 11:55:58;;;;;;;9.00;1.52;;;;;;;;;;4996764;28;20149;-79
2022/07/03 11:58:25;;;;;;;4.00;1.48;;;;;;;;;;4996336;28;20026;-76
2022/07/03 12:00:52;;;;;;;7.13;1.35;;;;;;;;;;4997462;28;20426;-82
2022/07/03 12:03:23;;;;;;;6.53;1.50;;;;;;;;;;4993154;28;20041;-83
2022/07/03 12:05:57;;;;;;;4.18;1.50;;;;;;;;;;4996683;28;20030;-83
2022/07/03 12:08:24;;;;;;;3.17;1.30;;;;;;;;;;4997166;28;20382;-82
2022/07/03 12:10:55;;;;;;;3.40;1.50;;;;;;;;;;4995176;28;20029;-85
2022/07/03 12:13:22;;;;;;;4.13;1.45;;;;;;;;;;4998235;28;20218;-84
2022/07/03 12:15:48;;;;;;;3.83;1.42;;;;;;;;;;4996441;28;20029;-83
2022/07/03 12:18:14;;;;;;;3.30;1.20;;;;;;;;;;4997586;28;20027;-84
2022/07/03 12:20:40;;;;;;;3.65;1.50;;;;;;;;;;4996094;28;20038;-82
2022/07/03 12:23:09;;;;;;;2.80;1.40;;;;;;;;;;4995797;28;20034;-85
2022/07/03 12:25:40;;;;;;;5.50;1.30;;;;;;;;;;4994296;28;20022;-84
2022/07/03 12:28:08;;;;;;;3.22;1.30;;;;;;;;;;4994670;28;20068;-76
2022/07/03 12:30:35;;;;;;;6.07;1.50;;;;;;;;;;4996025;28;20053;-83
2022/07/03 12:33:01;;;;;;;4.82;1.55;;;;;;;;;;4991464;28;20034;-82
2022/07/03 12:35:28;;;;;;;4.25;1.40;;;;;;;;;;4995457;28;20062;-83
2022/07/03 12:37:54;;;;;;;2.33;1.35;;;;;;;;;;4994136;28;20033;-82
2022/07/03 12:40:20;;;;;;;4.55;1.63;;;;;;;;;;4981214;28;20057;-82
2022/07/03 12:42:47;;;;;;;4.70;1.23;;;;;;;;;;4997410;28;20056;-78
2022/07/03 12:45:18;;;;;;;3.50;1.40;;;;;;;;;;5000789;28;20046;-81
2022/07/03 12:47:44;;;;;;;4.47;1.50;;;;;;;;;;5002275;28;20019;-73
2022/07/03 12:50:10;;;;;;;4.18;1.60;;;;;;;;;;4995782;28;20057;-83
2022/07/03 12:52:52;;;;;;;5.07;1.52;;;;;;;;;;5000645;28;20060;-79
2022/07/03 12:55:27;;;;;;;4.30;1.50;;;;;;;;;;4998970;28;20129;-82
2022/07/03 13:00:57;;;;;;;4.47;1.30;;;;;;;;;;5002764;28;20505;-83
2022/07/03 13:03:31;;;;;;;4.80;1.23;;;;;;;;;;5004297;28;20329;-86
2022/07/03 13:05:57;;;;;;;3.40;1.30;;;;;;;;;;5004980;28;20029;-81
2022/07/03 13:08:22;;;;;;;3.25;1.20;;;;;;;;;;5004042;28;20029;-86
2022/07/03 13:10:58;;;;;;;2.95;1.10;;;;;;;;;;5004260;28;20030;-81
2022/07/03 13:13:24;;;;;;;3.00;1.45;;;;;;;;;;5004372;28;20015;-89
2022/07/03 13:15:50;;;;;;;6.05;1.40;;;;;;;;;;4998238;28;20026;-81
2022/07/03 13:18:16;;;;;;;3.67;1.33;;;;;;;;;;4996773;28;20029;-79
2022/07/03 13:20:41;;;;;;;7.07;1.58;;;;;;;;;;5003487;28;20030;-79
2022/07/03 13:23:07;;;;;;;3.65;1.30;;;;;;;;;;5006933;28;20120;-79
2022/07/03 13:25:34;;;;;;;5.00;1.30;;;;;;;;;;5001146;28;20032;-80
2022/07/03 13:28:11;;;;;;;6.93;1.35;;;;;;;;;;5001851;28;20022;-79
2022/07/03 13:30:38;;;;;;;3.17;1.30;;;;;;;;;;5003675;28;20117;-78
2022/07/03 13:33:04;;;;;;;3.55;1.20;;;;;;;;;;5000540;28;20030;-78
2022/07/03 13:35:29;;;;;;;2.95;1.30;;;;;;;;;;5003777;28;20053;-77
2022/07/03 13:37:55;;;;;;;2.28;1.20;;;;;;;;;;5003199;28;20026;-77
2022/07/03 13:40:21;;;;;;;4.05;1.20;;;;;;;;;;5002594;28;20026;-78
2022/07/03 13:42:47;;;;;;;3.25;1.27;;;;;;;;;;5001435;28;20030;-77
2022/07/03 13:45:12;;;;;;;3.92;1.50;;;;;;;;;;5002064;28;20111;-78
2022/07/03 13:47:38;;;;;;;5.18;1.25;;;;;;;;;;5001724;28;20034;-78
2022/07/03 13:50:04;;;;;;;2.80;1.33;;;;;;;;;;4999972;28;20030;-78
2022/07/03 13:52:30;;;;;;;3.08;1.30;;;;;;;;;;5002462;28;20030;-75
2022/07/03 13:54:55;;;;;;;3.35;1.40;;;;;;;;;;5003492;28;20014;-79
2022/07/03 13:57:20;;;;;;;5.57;1.50;;;;;;;;;;4999146;28;20030;-77
2022/07/03 13:59:47;;;;;;;1.90;1.17;;;;;;;;;;5002621;28;20026;-79
2022/07/03 14:02:12;;;;;;;5.25;1.60;;;;;;;;;;5003280;28;20372;-79
2022/07/03 14:04:38;;;;;;;3.60;1.20;;;;;;;;;;5003365;28;20038;-79
2022/07/03 14:07:04;;;;;;;2.90;1.23;;;;;;;;;;5002225;28;20037;-79
2022/07/03 14:09:29;;;;;;;5.72;1.30;;;;;;;;;;5002339;28;20321;-79
2022/07/03 14:11:54;;;;;;;4.82;1.50;;;;;;;;;;5002437;28;20054;-76
2022/07/03 14:14:20;;;;;;;2.40;1.10;;;;;;;;;;4997165;28;20462;-78
2022/07/03 14:16:45;;;;;;;7.93;1.38;;;;;;;;;;4997216;28;20022;-78
2022/07/03 14:19:10;;;;;;;7.07;1.30;;;;;;;;;;4998270;28;20093;-79
2022/07/03 14:21:36;;;;;;;5.80;1.40;;;;;;;;;;5000058;28;20030;-76
2022/07/03 14:24:01;;;;;;;3.90;1.50;;;;;;;;;;5001257;28;20022;-77
2022/07/03 14:34:40;;;;;;;2.90;1.40;;;;;;;;;;5002697;28;20070;-77
2022/07/03 14:37:06;;;;;;;3.47;1.35;;;;;;;;;;4998890;28;20030;-78
2022/07/03 14:39:31;;;;;;;2.95;1.25;;;;;;;;;;4995644;28;20030;-79
2022/07/03 14:41:56;;;;;;;4.93;1.30;;;;;;;;;;4992001;28;20026;-78
2022/07/03 14:44:24;;;;;;;2.65;1.40;;;;;;;;;;4993350;28;20022;-79
2022/07/03 14:46:53;;;;;;;3.95;1.63;;;;;;;;;;4991089;28;20441;-77
2022/07/03 14:49:19;;;;;;;2.97;1.40;;;;;;;;;;4991162;28;20057;-77
2022/07/03 14:51:45;;;;;;;3.35;1.27;;;;;;;;;;4991009;28;20084;-83
2022/07/03 14:54:14;;;;;;;8.75;1.40;;;;;;;;;;4990941;28;20026;-84
2022/07/03 14:56:42;;;;;;;5.60;1.40;;;;;;;;;;4990981;28;20774;-76
2022/07/03 14:59:09;;;;;;;3.63;1.17;;;;;;;;;;4991348;28;20026;-78
2022/07/03 15:01:40;;;;;;;2.45;1.20;;;;;;;;;;4992733;28;20026;-79
2022/07/03 15:04:22;;;;;;;4.18;1.40;;;;;;;;;;4990834;28;20030;-76
2022/07/03 15:06:48;;;;;;;3.75;1.25;;;;;;;;;;4990495;28;20385;-77
2022/07/03 15:09:21;;;;;;;3.28;1.40;;;;;;;;;;4990816;28;20029;-79
2022/07/03 15:14:46;;;;;;;3.78;1.30;;;;;;;;;;4992697;28;20049;-75
2022/07/03 15:17:15;;;;;;;3.95;1.30;;;;;;;;;;4997355;28;20018;-76
2022/07/03 15:19:43;;;;;;;2.60;1.02;;;;;;;;;;4988990;28;20113;-74